sensor_id;sensor_type;location;lat;lon;timestamp;pressure;altitude;pressure_sealevel;temperature;humidity
58072;BME280;60383;46.626;18.866;2022-12-10T00:01:25;98838.06;;;8.90;100.00
58072;BME280;60383;46.626;18.866;2022-12-10T00:03:51;98836.25;;;8.82;100.00
58072;BME280;60383;46.626;18.866;2022-12-10T00:06:20;98836.25;;;8.82;100.00
58072;BME280;60383;46.626;18.866;2022-12-10T00:08:46;98831.50;;;8.61;100.00
58072;BME280;60383;46.626;18.866;2022-12-10T00:11:13;98830.06;;;8.50;100.00
58072;BME280;60383;46.626;18.866;2022-12-10T00:13:40;98846.78;;;8.70;100.00
58072;BME280;60383;46.626;18.866;2022-12-10T00:16:08;98836.69;;;8.71;100.00
58072;BME280;60383;46.626;18.866;2022-12-10T00:18:36;98824.59;;;8.50;100.00
58072;BME280;60383;46.626;18.866;2022-12-10T00:21:03;98844.47;;;8.59;100.00
58072;BME280;60383;46.626;18.866;2022-12-10T00:23:29;98852.78;;;8.66;100.00
58072;BME280;60383;46.626;18.866;2022-12-10T00:26:11;98875.28;;;8.68;100.00
58072;BME280;60383;46.626;18.866;2022-12-10T00:28:39;98871.41;;;8.62;100.00
58072;BME280;60383;46.626;18.866;2022-12-10T00:31:06;98882.44;;;8.69;100.00
58072;BME280;60383;46.626;18.866;2022-12-10T00:33:33;98883.84;;;8.65;100.00
58072;BME280;60383;46.626;18.866;2022-12-10T00:36:06;98905.47;;;8.66;100.00
58072;BME280;60383;46.626;18.866;2022-12-10T00:38:32;98912.63;;;8.67;100.00
58072;BME280;60383;46.626;18.866;2022-12-10T00:40:57;98906.50;;;8.88;100.00
58072;BME280;60383;46.626;18.866;2022-12-10T00:43:22;98902.72;;;8.89;100.00
58072;BME280;60383;46.626;18.866;2022-12-10T00:45:48;98894.91;;;8.86;100.00
58072;BME280;60383;46.626;18.866;2022-12-10T00:48:13;98904.19;;;8.77;100.00
58072;BME280;60383;46.626;18.866;2022-12-10T00:50:39;98895.69;;;8.95;100.00
58072;BME280;60383;46.626;18.866;2022-12-10T00:53:04;98899.50;;;8.86;100.00
58072;BME280;60383;46.626;18.866;2022-12-10T00:55:29;98900.81;;;8.75;100.00
58072;BME280;60383;46.626;18.866;2022-12-10T00:57:55;98913.75;;;8.81;100.00
58072;BME280;60383;46.626;18.866;2022-12-10T01:00:21;98914.81;;;8.72;100.00
58072;BME280;60383;46.626;18.866;2022-12-10T01:02:46;98927.16;;;8.68;100.00
58072;BME280;60383;46.626;18.866;2022-12-10T01:05:11;98929.19;;;8.66;100.00
58072;BME280;60383;46.626;18.866;2022-12-10T01:07:37;98923.78;;;8.57;100.00
58072;BME280;60383;46.626;18.866;2022-12-10T01:10:03;98915.63;;;8.57;100.00
58072;BME280;60383;46.626;18.866;2022-12-10T01:12:28;98920.88;;;8.59;100.00
58072;BME280;60383;46.626;18.866;2022-12-10T01:14:54;98920.22;;;8.57;100.00
58072;BME280;60383;46.626;18.866;2022-12-10T01:17:19;98923.38;;;8.69;100.00
58072;BME280;60383;46.626;18.866;2022-12-10T01:19:46;98922.88;;;8.65;100.00
58072;BME280;60383;46.626;18.866;2022-12-10T01:22:12;98931.94;;;8.66;100.00
58072;BME280;60383;46.626;18.866;2022-12-10T01:24:37;98925.94;;;8.70;100.00
58072;BME280;60383;46.626;18.866;2022-12-10T01:27:03;98937.94;;;8.84;100.00
58072;BME280;60383;46.626;18.866;2022-12-10T01:29:29;98936.59;;;8.80;100.00
58072;BME280;60383;46.626;18.866;2022-12-10T01:31:56;98947.47;;;8.88;100.00
58072;BME280;60383;46.626;18.866;2022-12-10T01:34:22;98947.81;;;8.85;100.00
58072;BME280;60383;46.626;18.866;2022-12-10T01:36:51;98944.16;;;8.93;100.00
58072;BME280;60383;46.626;18.866;2022-12-10T01:39:18;98934.53;;;8.82;100.00
58072;BME280;60383;46.626;18.866;2022-12-10T01:41:48;98926.03;;;8.77;100.00
58072;BME280;60383;46.626;18.866;2022-12-10T01:46:44;98925.78;;;8.63;100.00
58072;BME280;60383;46.626;18.866;2022-12-10T01:49:13;98928.91;;;8.60;100.00
58072;BME280;60383;46.626;18.866;2022-12-10T01:51:41;98924.66;;;8.58;100.00
58072;BME280;60383;46.626;18.866;2022-12-10T01:54:10;98925.50;;;8.58;100.00
58072;BME280;60383;46.626;18.866;2022-12-10T01:56:40;98919.03;;;8.59;100.00
58072;BME280;60383;46.626;18.866;2022-12-10T01:59:10;98922.09;;;8.56;100.00
58072;BME280;60383;46.626;18.866;2022-12-10T02:07:02;98939.50;;;8.55;100.00
58072;BME280;60383;46.626;18.866;2022-12-10T02:12:18;98939.88;;;8.52;100.00
58072;BME280;60383;46.626;18.866;2022-12-10T02:20:03;98948.50;;;8.64;100.00
58072;BME280;60383;46.626;18.866;2022-12-10T02:22:38;98955.38;;;8.52;100.00
58072;BME280;60383;46.626;18.866;2022-12-10T02:25:06;98963.69;;;8.58;100.00
58072;BME280;60383;46.626;18.866;2022-12-10T02:30:23;98949.75;;;8.53;100.00
58072;BME280;60383;46.626;18.866;2022-12-10T02:32:50;98951.81;;;8.43;100.00
58072;BME280;60383;46.626;18.866;2022-12-10T02:35:20;98945.75;;;8.32;100.00
58072;BME280;60383;46.626;18.866;2022-12-10T02:38:03;98957.88;;;8.30;100.00
58072;BME280;60383;46.626;18.866;2022-12-10T02:40:33;98963.06;;;8.17;100.00
58072;BME280;60383;46.626;18.866;2022-12-10T02:43:00;98974.50;;;8.12;100.00
58072;BME280;60383;46.626;18.866;2022-12-10T02:45:27;98980.34;;;8.32;100.00
58072;BME280;60383;46.626;18.866;2022-12-10T02:47:57;98979.59;;;8.15;100.00
58072;BME280;60383;46.626;18.866;2022-12-10T02:50:23;98971.19;;;8.25;100.00
58072;BME280;60383;46.626;18.866;2022-12-10T02:52:49;98981.28;;;8.16;100.00
58072;BME280;60383;46.626;18.866;2022-12-10T02:55:15;98975.56;;;8.03;100.00
58072;BME280;60383;46.626;18.866;2022-12-10T03:00:21;98988.75;;;7.82;100.00
58072;BME280;60383;46.626;18.866;2022-12-10T03:08:16;98997.09;;;7.73;100.00
58072;BME280;60383;46.626;18.866;2022-12-10T03:13:19;98991.72;;;7.48;100.00
58072;BME280;60383;46.626;18.866;2022-12-10T03:15:47;98985.44;;;7.47;100.00
58072;BME280;60383;46.626;18.866;2022-12-10T03:18:17;98989.66;;;7.58;100.00
58072;BME280;60383;46.626;18.866;2022-12-10T03:20:45;98986.78;;;7.43;100.00
58072;BME280;60383;46.626;18.866;2022-12-10T03:23:15;98986.59;;;7.45;100.00
58072;BME280;60383;46.626;18.866;2022-12-10T03:25:42;98985.38;;;7.56;100.00
58072;BME280;60383;46.626;18.866;2022-12-10T03:28:08;98994.81;;;7.37;100.00
58072;BME280;60383;46.626;18.866;2022-12-10T03:30:35;98989.34;;;7.28;100.00
58072;BME280;60383;46.626;18.866;2022-12-10T03:33:02;98991.06;;;7.29;100.00
58072;BME280;60383;46.626;18.866;2022-12-10T03:35:27;98992.41;;;7.50;100.00
58072;BME280;60383;46.626;18.866;2022-12-10T03:37:53;99012.16;;;7.35;100.00
58072;BME280;60383;46.626;18.866;2022-12-10T03:40:22;99025.41;;;7.47;100.00
58072;BME280;60383;46.626;18.866;2022-12-10T03:42:48;99033.59;;;7.39;100.00
58072;BME280;60383;46.626;18.866;2022-12-10T03:45:13;99038.56;;;7.27;100.00
58072;BME280;60383;46.626;18.866;2022-12-10T03:47:40;99018.28;;;7.21;100.00
58072;BME280;60383;46.626;18.866;2022-12-10T03:50:05;99021.00;;;7.04;100.00
58072;BME280;60383;46.626;18.866;2022-12-10T03:52:31;99026.81;;;7.10;100.00
58072;BME280;60383;46.626;18.866;2022-12-10T03:54:57;99023.56;;;7.14;100.00
58072;BME280;60383;46.626;18.866;2022-12-10T03:57:22;99026.28;;;6.98;100.00
58072;BME280;60383;46.626;18.866;2022-12-10T03:59:48;99025.06;;;6.92;100.00
58072;BME280;60383;46.626;18.866;2022-12-10T04:02:13;99031.03;;;6.96;100.00
58072;BME280;60383;46.626;18.866;2022-12-10T04:04:39;99027.13;;;6.98;100.00
58072;BME280;60383;46.626;18.866;2022-12-10T04:07:04;99028.84;;;7.08;100.00
58072;BME280;60383;46.626;18.866;2022-12-10T04:09:30;99031.91;;;6.96;100.00
58072;BME280;60383;46.626;18.866;2022-12-10T04:11:56;99025.25;;;6.99;100.00
58072;BME280;60383;46.626;18.866;2022-12-10T04:14:22;99031.88;;;7.04;100.00
58072;BME280;60383;46.626;18.866;2022-12-10T04:17:07;99030.00;;;6.97;100.00
58072;BME280;60383;46.626;18.866;2022-12-10T04:19:32;99026.94;;;6.83;100.00
58072;BME280;60383;46.626;18.866;2022-12-10T04:21:58;99023.88;;;6.86;100.00
58072;BME280;60383;46.626;18.866;2022-12-10T04:24:41;99025.56;;;6.87;100.00
58072;BME280;60383;46.626;18.866;2022-12-10T04:27:32;99025.59;;;7.04;100.00
58072;BME280;60383;46.626;18.866;2022-12-10T04:29:58;99025.91;;;6.76;100.00
58072;BME280;60383;46.626;18.866;2022-12-10T04:32:26;99027.28;;;6.72;100.00
58072;BME280;60383;46.626;18.866;2022-12-10T04:34:52;99028.94;;;6.65;100.00
58072;BME280;60383;46.626;18.866;2022-12-10T04:37:18;99025.84;;;6.60;100.00
58072;BME280;60383;46.626;18.866;2022-12-10T04:39:44;99019.09;;;6.64;100.00
58072;BME280;60383;46.626;18.866;2022-12-10T04:42:09;99027.03;;;6.57;100.00
58072;BME280;60383;46.626;18.866;2022-12-10T04:44:35;99016.03;;;6.59;100.00
58072;BME280;60383;46.626;18.866;2022-12-10T04:47:02;99021.47;;;6.59;100.00
58072;BME280;60383;46.626;18.866;2022-12-10T04:49:28;99019.06;;;6.55;100.00
58072;BME280;60383;46.626;18.866;2022-12-10T04:51:53;99022.63;;;6.64;100.00
58072;BME280;60383;46.626;18.866;2022-12-10T04:54:20;99018.06;;;6.65;100.00
58072;BME280;60383;46.626;18.866;2022-12-10T04:56:46;99015.50;;;6.63;100.00
58072;BME280;60383;46.626;18.866;2022-12-10T04:59:12;99027.41;;;6.70;100.00
58072;BME280;60383;46.626;18.866;2022-12-10T05:01:38;99025.59;;;6.79;100.00
58072;BME280;60383;46.626;18.866;2022-12-10T05:04:08;99025.22;;;6.74;100.00
58072;BME280;60383;46.626;18.866;2022-12-10T05:06:34;99040.53;;;6.83;100.00
58072;BME280;60383;46.626;18.866;2022-12-10T05:09:00;99047.16;;;6.72;100.00
58072;BME280;60383;46.626;18.866;2022-12-10T05:11:28;99052.09;;;6.77;100.00
58072;BME280;60383;46.626;18.866;2022-12-10T05:13:54;99056.69;;;6.85;100.00
58072;BME280;60383;46.626;18.866;2022-12-10T05:16:21;99050.75;;;6.81;100.00
58072;BME280;60383;46.626;18.866;2022-12-10T05:18:47;99043.22;;;6.67;100.00
58072;BME280;60383;46.626;18.866;2022-12-10T05:21:15;99048.16;;;6.71;100.00
58072;BME280;60383;46.626;18.866;2022-12-10T05:23:43;99050.38;;;6.76;100.00
58072;BME280;60383;46.626;18.866;2022-12-10T05:26:14;99063.41;;;6.56;100.00
58072;BME280;60383;46.626;18.866;2022-12-10T05:28:42;99070.44;;;6.67;100.00
58072;BME280;60383;46.626;18.866;2022-12-10T05:31:18;99065.84;;;6.67;100.00
58072;BME280;60383;46.626;18.866;2022-12-10T05:33:45;99072.63;;;6.55;100.00
58072;BME280;60383;46.626;18.866;2022-12-10T05:36:14;99064.78;;;6.52;100.00
58072;BME280;60383;46.626;18.866;2022-12-10T05:38:39;99071.22;;;6.51;100.00
58072;BME280;60383;46.626;18.866;2022-12-10T05:41:25;99066.84;;;6.58;100.00
58072;BME280;60383;46.626;18.866;2022-12-10T05:43:53;99072.91;;;6.44;100.00
58072;BME280;60383;46.626;18.866;2022-12-10T05:46:21;99082.00;;;6.69;100.00
58072;BME280;60383;46.626;18.866;2022-12-10T05:48:48;99086.38;;;6.53;100.00
58072;BME280;60383;46.626;18.866;2022-12-10T05:51:22;99087.75;;;6.58;100.00
58072;BME280;60383;46.626;18.866;2022-12-10T05:53:48;99085.16;;;6.48;100.00
58072;BME280;60383;46.626;18.866;2022-12-10T05:56:16;99084.59;;;6.36;100.00
58072;BME280;60383;46.626;18.866;2022-12-10T05:58:45;99089.16;;;6.27;100.00
58072;BME280;60383;46.626;18.866;2022-12-10T06:01:14;99087.97;;;6.30;100.00
58072;BME280;60383;46.626;18.866;2022-12-10T06:03:40;99092.84;;;6.18;100.00
58072;BME280;60383;46.626;18.866;2022-12-10T06:06:06;99097.91;;;6.13;100.00
58072;BME280;60383;46.626;18.866;2022-12-10T06:08:32;99099.22;;;6.08;100.00
58072;BME280;60383;46.626;18.866;2022-12-10T06:11:10;99102.06;;;6.25;100.00
58072;BME280;60383;46.626;18.866;2022-12-10T06:13:36;99088.88;;;6.04;100.00
58072;BME280;60383;46.626;18.866;2022-12-10T06:16:06;99095.22;;;5.95;100.00
58072;BME280;60383;46.626;18.866;2022-12-10T06:18:32;99098.91;;;5.85;100.00
58072;BME280;60383;46.626;18.866;2022-12-10T06:20:58;99093.81;;;5.90;100.00
58072;BME280;60383;46.626;18.866;2022-12-10T06:23:23;99091.22;;;5.81;100.00
58072;BME280;60383;46.626;18.866;2022-12-10T06:25:48;99092.16;;;5.89;100.00
58072;BME280;60383;46.626;18.866;2022-12-10T06:28:14;99106.28;;;5.93;100.00
58072;BME280;60383;46.626;18.866;2022-12-10T06:30:39;99114.75;;;5.72;100.00
58072;BME280;60383;46.626;18.866;2022-12-10T06:33:05;99103.13;;;5.80;100.00
58072;BME280;60383;46.626;18.866;2022-12-10T06:35:30;99083.47;;;5.86;100.00
58072;BME280;60383;46.626;18.866;2022-12-10T06:37:56;99085.13;;;5.79;100.00
58072;BME280;60383;46.626;18.866;2022-12-10T06:40:21;99074.66;;;5.66;100.00
58072;BME280;60383;46.626;18.866;2022-12-10T06:42:46;99087.41;;;5.65;100.00
58072;BME280;60383;46.626;18.866;2022-12-10T06:45:12;99091.50;;;5.69;100.00
58072;BME280;60383;46.626;18.866;2022-12-10T06:47:38;99080.25;;;5.64;100.00
58072;BME280;60383;46.626;18.866;2022-12-10T06:50:03;99073.41;;;5.60;100.00
58072;BME280;60383;46.626;18.866;2022-12-10T06:52:29;99067.38;;;5.66;100.00
58072;BME280;60383;46.626;18.866;2022-12-10T06:54:54;99077.72;;;5.63;100.00
58072;BME280;60383;46.626;18.866;2022-12-10T06:57:21;99087.63;;;5.54;100.00
58072;BME280;60383;46.626;18.866;2022-12-10T06:59:46;99094.28;;;5.78;100.00
58072;BME280;60383;46.626;18.866;2022-12-10T07:02:12;99102.25;;;5.79;100.00
58072;BME280;60383;46.626;18.866;2022-12-10T07:04:38;99102.78;;;5.83;100.00
58072;BME280;60383;46.626;18.866;2022-12-10T07:07:04;99108.28;;;5.91;100.00
58072;BME280;60383;46.626;18.866;2022-12-10T07:09:30;99124.25;;;5.94;100.00
58072;BME280;60383;46.626;18.866;2022-12-10T07:11:57;99115.19;;;5.85;100.00
58072;BME280;60383;46.626;18.866;2022-12-10T07:14:22;99116.06;;;6.04;100.00
58072;BME280;60383;46.626;18.866;2022-12-10T07:16:48;99121.69;;;5.92;100.00
58072;BME280;60383;46.626;18.866;2022-12-10T07:19:13;99106.75;;;5.88;100.00
58072;BME280;60383;46.626;18.866;2022-12-10T07:21:41;99100.50;;;5.96;100.00
58072;BME280;60383;46.626;18.866;2022-12-10T07:24:10;99087.97;;;5.77;100.00
58072;BME280;60383;46.626;18.866;2022-12-10T07:26:38;99108.16;;;5.74;100.00
58072;BME280;60383;46.626;18.866;2022-12-10T07:29:05;99114.50;;;5.39;100.00
58072;BME280;60383;46.626;18.866;2022-12-10T07:31:32;99106.72;;;5.44;100.00
58072;BME280;60383;46.626;18.866;2022-12-10T07:33:58;99106.00;;;5.60;100.00
58072;BME280;60383;46.626;18.866;2022-12-10T07:36:24;99111.22;;;5.71;100.00
58072;BME280;60383;46.626;18.866;2022-12-10T07:39:11;99114.75;;;5.72;100.00
58072;BME280;60383;46.626;18.866;2022-12-10T07:41:43;99118.97;;;6.11;100.00
58072;BME280;60383;46.626;18.866;2022-12-10T07:44:11;99104.38;;;5.94;100.00
58072;BME280;60383;46.626;18.866;2022-12-10T07:46:37;99102.09;;;5.81;100.00
58072;BME280;60383;46.626;18.866;2022-12-10T07:49:03;99074.66;;;5.66;100.00
58072;BME280;60383;46.626;18.866;2022-12-10T07:51:29;99075.53;;;5.66;100.00
58072;BME280;60383;46.626;18.866;2022-12-10T07:53:55;99075.59;;;5.56;100.00
58072;BME280;60383;46.626;18.866;2022-12-10T07:56:22;99079.47;;;5.54;100.00
58072;BME280;60383;46.626;18.866;2022-12-10T07:58:49;99077.03;;;5.42;100.00
58072;BME280;60383;46.626;18.866;2022-12-10T08:01:22;99082.00;;;5.47;100.00
58072;BME280;60383;46.626;18.866;2022-12-10T08:03:48;99079.44;;;5.46;100.00
58072;BME280;60383;46.626;18.866;2022-12-10T08:06:16;99081.13;;;5.47;100.00
58072;BME280;60383;46.626;18.866;2022-12-10T08:08:43;99076.59;;;5.29;100.00
58072;BME280;60383;46.626;18.866;2022-12-10T08:11:09;99073.88;;;5.29;100.00
58072;BME280;60383;46.626;18.866;2022-12-10T08:13:36;99080.22;;;5.20;100.00
58072;BME280;60383;46.626;18.866;2022-12-10T08:16:05;99084.34;;;5.24;100.00
58072;BME280;60383;46.626;18.866;2022-12-10T08:18:31;99094.41;;;5.14;100.00
58072;BME280;60383;46.626;18.866;2022-12-10T08:21:01;99093.78;;;5.20;100.00
58072;BME280;60383;46.626;18.866;2022-12-10T08:23:59;99098.22;;;5.21;100.00
58072;BME280;60383;46.626;18.866;2022-12-10T08:26:28;99098.94;;;5.23;100.00
58072;BME280;60383;46.626;18.866;2022-12-10T08:28:54;99100.72;;;5.14;100.00
58072;BME280;60383;46.626;18.866;2022-12-10T08:31:21;99108.31;;;5.10;100.00
58072;BME280;60383;46.626;18.866;2022-12-10T08:33:48;99103.09;;;4.99;100.00
58072;BME280;60383;46.626;18.866;2022-12-10T08:36:14;99105.50;;;5.02;100.00
58072;BME280;60383;46.626;18.866;2022-12-10T08:38:41;99103.47;;;5.22;100.00
58072;BME280;60383;46.626;18.866;2022-12-10T08:41:16;99099.22;;;5.20;100.00
58072;BME280;60383;46.626;18.866;2022-12-10T08:43:42;99095.75;;;5.27;100.00
58072;BME280;60383;46.626;18.866;2022-12-10T08:46:08;99101.47;;;5.24;100.00
58072;BME280;60383;46.626;18.866;2022-12-10T08:48:35;99090.06;;;5.21;100.00
58072;BME280;60383;46.626;18.866;2022-12-10T08:51:02;99090.78;;;5.23;100.00
58072;BME280;60383;46.626;18.866;2022-12-10T08:53:27;99093.16;;;5.26;100.00
58072;BME280;60383;46.626;18.866;2022-12-10T08:55:53;99093.63;;;5.39;100.00
58072;BME280;60383;46.626;18.866;2022-12-10T08:58:19;99100.28;;;5.45;100.00
58072;BME280;60383;46.626;18.866;2022-12-10T09:00:46;99092.53;;;5.50;100.00
58072;BME280;60383;46.626;18.866;2022-12-10T09:03:12;99091.59;;;5.59;100.00
58072;BME280;60383;46.626;18.866;2022-12-10T09:05:37;99089.91;;;5.22;100.00
58072;BME280;60383;46.626;18.866;2022-12-10T09:08:03;99083.09;;;5.00;100.00
58072;BME280;60383;46.626;18.866;2022-12-10T09:10:29;99071.88;;;5.13;100.00
58072;BME280;60383;46.626;18.866;2022-12-10T09:12:54;99066.81;;;5.18;100.00
58072;BME280;60383;46.626;18.866;2022-12-10T09:15:20;99059.84;;;5.16;100.00
58072;BME280;60383;46.626;18.866;2022-12-10T09:17:45;99060.75;;;5.06;100.00
58072;BME280;60383;46.626;18.866;2022-12-10T09:20:11;99049.44;;;5.11;100.00
58072;BME280;60383;46.626;18.866;2022-12-10T09:22:36;99054.09;;;5.19;100.00
58072;BME280;60383;46.626;18.866;2022-12-10T09:25:06;99067.44;;;5.12;100.00
58072;BME280;60383;46.626;18.866;2022-12-10T09:27:32;99063.94;;;5.20;100.00
58072;BME280;60383;46.626;18.866;2022-12-10T09:29:58;99054.25;;;5.17;100.00
58072;BME280;60383;46.626;18.866;2022-12-10T09:32:23;99060.00;;;5.14;100.00
58072;BME280;60383;46.626;18.866;2022-12-10T09:34:52;99073.50;;;5.24;100.00
58072;BME280;60383;46.626;18.866;2022-12-10T09:37:18;99068.44;;;5.29;100.00
58072;BME280;60383;46.626;18.866;2022-12-10T09:39:43;99069.59;;;5.44;100.00
58072;BME280;60383;46.626;18.866;2022-12-10T09:47:36;99067.16;;;5.59;100.00
58072;BME280;60383;46.626;18.866;2022-12-10T09:50:32;99060.47;;;5.54;100.00
58072;BME280;60383;46.626;18.866;2022-12-10T09:53:01;99064.00;;;5.46;100.00
58072;BME280;60383;46.626;18.866;2022-12-10T09:55:39;99060.94;;;5.49;100.00
58072;BME280;60383;46.626;18.866;2022-12-10T09:58:09;99052.03;;;5.57;100.00
58072;BME280;60383;46.626;18.866;2022-12-10T10:00:40;99052.88;;;5.39;100.00
58072;BME280;60383;46.626;18.866;2022-12-10T10:03:12;99042.75;;;5.23;100.00
58072;BME280;60383;46.626;18.866;2022-12-10T10:05:41;99040.50;;;5.19;100.00
58072;BME280;60383;46.626;18.866;2022-12-10T10:08:36;99043.22;;;5.19;100.00
58072;BME280;60383;46.626;18.866;2022-12-10T10:11:04;99044.53;;;5.33;100.00
58072;BME280;60383;46.626;18.866;2022-12-10T10:18:56;99053.06;;;5.20;100.00
58072;BME280;60383;46.626;18.866;2022-12-10T10:21:26;99062.44;;;5.43;100.00
58072;BME280;60383;46.626;18.866;2022-12-10T10:23:52;99046.00;;;5.27;100.00
58072;BME280;60383;46.626;18.866;2022-12-10T10:26:18;99045.25;;;5.35;100.00
58072;BME280;60383;46.626;18.866;2022-12-10T10:28:44;99042.38;;;5.36;100.00
58072;BME280;60383;46.626;18.866;2022-12-10T10:31:23;99027.72;;;5.29;100.00
58072;BME280;60383;46.626;18.866;2022-12-10T10:33:55;99028.50;;;5.21;100.00
58072;BME280;60383;46.626;18.866;2022-12-10T10:36:27;99032.16;;;5.12;100.00
58072;BME280;60383;46.626;18.866;2022-12-10T10:38:54;99037.78;;;5.19;100.00
58072;BME280;60383;46.626;18.866;2022-12-10T10:41:20;99033.44;;;5.26;99.94
58072;BME280;60383;46.626;18.866;2022-12-10T10:43:45;99035.06;;;5.19;100.00
58072;BME280;60383;46.626;18.866;2022-12-10T10:46:35;99029.50;;;5.20;99.92
58072;BME280;60383;46.626;18.866;2022-12-10T10:49:29;99033.94;;;5.03;100.00
58072;BME280;60383;46.626;18.866;2022-12-10T10:52:13;99023.56;;;4.99;100.00
58072;BME280;60383;46.626;18.866;2022-12-10T10:54:43;99009.06;;;4.90;100.00
58072;BME280;60383;46.626;18.866;2022-12-10T11:00:19;99019.75;;;5.09;100.00
58072;BME280;60383;46.626;18.866;2022-12-10T11:02:45;99013.72;;;4.98;100.00
58072;BME280;60383;46.626;18.866;2022-12-10T11:07:40;99026.53;;;4.87;100.00
58072;BME280;60383;46.626;18.866;2022-12-10T11:10:20;99029.16;;;4.97;100.00
58072;BME280;60383;46.626;18.866;2022-12-10T11:13:14;99022.56;;;5.00;100.00
58072;BME280;60383;46.626;18.866;2022-12-10T11:15:43;99007.44;;;4.97;100.00
58072;BME280;60383;46.626;18.866;2022-12-10T11:18:36;99000.59;;;4.93;100.00
58072;BME280;60383;46.626;18.866;2022-12-10T11:23:46;98986.28;;;4.83;100.00
58072;BME280;60383;46.626;18.866;2022-12-10T11:47:46;98913.16;;;4.55;100.00
58072;BME280;60383;46.626;18.866;2022-12-10T11:50:43;98901.97;;;4.58;100.00
58072;BME280;60383;46.626;18.866;2022-12-10T12:01:51;98880.25;;;4.31;100.00
58072;BME280;60383;46.626;18.866;2022-12-10T12:12:35;98879.09;;;4.34;100.00
58072;BME280;60383;46.626;18.866;2022-12-10T12:17:55;98894.81;;;4.48;100.00
58072;BME280;60383;46.626;18.866;2022-12-10T12:20:31;98897.72;;;4.37;100.00
58072;BME280;60383;46.626;18.866;2022-12-10T12:23:14;98899.28;;;4.22;100.00
58072;BME280;60383;46.626;18.866;2022-12-10T12:25:46;98902.69;;;4.24;100.00
58072;BME280;60383;46.626;18.866;2022-12-10T12:28:21;98900.13;;;4.22;100.00
58072;BME280;60383;46.626;18.866;2022-12-10T12:30:56;98893.25;;;4.10;100.00
58072;BME280;60383;46.626;18.866;2022-12-10T12:33:36;98900.84;;;4.24;100.00
58072;BME280;60383;46.626;18.866;2022-12-10T12:36:18;98913.22;;;4.09;100.00
58072;BME280;60383;46.626;18.866;2022-12-10T12:41:57;98907.53;;;4.02;100.00
58072;BME280;60383;46.626;18.866;2022-12-10T12:47:40;98889.66;;;3.91;100.00
58072;BME280;60383;46.626;18.866;2022-12-10T12:50:43;98880.56;;;3.82;100.00
58072;BME280;60383;46.626;18.866;2022-12-10T12:53:18;98884.28;;;3.81;100.00
58072;BME280;60383;46.626;18.866;2022-12-10T12:55:46;98885.78;;;3.94;100.00
58072;BME280;60383;46.626;18.866;2022-12-10T13:03:53;98898.47;;;3.93;100.00
58072;BME280;60383;46.626;18.866;2022-12-10T13:06:25;98903.16;;;4.01;100.00
58072;BME280;60383;46.626;18.866;2022-12-10T13:08:58;98899.59;;;4.19;100.00
58072;BME280;60383;46.626;18.866;2022-12-10T13:17:33;98900.97;;;4.23;100.00
58072;BME280;60383;46.626;18.866;2022-12-10T13:22:57;98903.22;;;4.09;100.00
58072;BME280;60383;46.626;18.866;2022-12-10T13:26:02;98902.13;;;4.20;100.00
58072;BME280;60383;46.626;18.866;2022-12-10T13:28:50;98899.59;;;4.19;100.00
58072;BME280;60383;46.626;18.866;2022-12-10T13:36:36;98877.13;;;4.44;100.00
58072;BME280;60383;46.626;18.866;2022-12-10T13:41:28;98868.47;;;4.05;100.00
58072;BME280;60383;46.626;18.866;2022-12-10T13:44:48;98872.19;;;4.04;100.00
58072;BME280;60383;46.626;18.866;2022-12-10T13:50:14;98874.97;;;3.94;100.00
58072;BME280;60383;46.626;18.866;2022-12-10T13:58:01;98857.13;;;3.73;100.00
58072;BME280;60383;46.626;18.866;2022-12-10T14:00:41;98858.13;;;3.72;100.00
58072;BME280;60383;46.626;18.866;2022-12-10T14:08:29;98855.38;;;3.54;100.00
58072;BME280;60383;46.626;18.866;2022-12-10T14:10:57;98860.19;;;3.60;100.00
58072;BME280;60383;46.626;18.866;2022-12-10T14:13:31;98861.75;;;3.63;100.00
58072;BME280;60383;46.626;18.866;2022-12-10T14:16:00;98869.91;;;3.81;100.00
58072;BME280;60383;46.626;18.866;2022-12-10T14:18:28;98871.34;;;3.75;100.00
58072;BME280;60383;46.626;18.866;2022-12-10T14:20:55;98871.38;;;3.93;100.00
58072;BME280;60383;46.626;18.866;2022-12-10T14:25:57;98876.59;;;3.59;100.00
58072;BME280;60383;46.626;18.866;2022-12-10T14:28:23;98874.78;;;3.77;100.00
58072;BME280;60383;46.626;18.866;2022-12-10T14:30:50;98872.66;;;3.71;100.00
58072;BME280;60383;46.626;18.866;2022-12-10T14:33:19;98883.00;;;3.86;100.00
58072;BME280;60383;46.626;18.866;2022-12-10T14:35:47;98877.16;;;4.08;100.00
58072;BME280;60383;46.626;18.866;2022-12-10T14:38:25;98879.84;;;3.90;100.00
58072;BME280;60383;46.626;18.866;2022-12-10T14:40:53;98874.78;;;3.77;100.00
58072;BME280;60383;46.626;18.866;2022-12-10T14:43:45;98877.34;;;3.97;100.00
58072;BME280;60383;46.626;18.866;2022-12-10T14:46:17;98877.88;;;4.00;100.00
58072;BME280;60383;46.626;18.866;2022-12-10T14:48:43;98865.75;;;4.05;100.00
58072;BME280;60383;46.626;18.866;2022-12-10T14:51:14;98871.69;;;3.90;100.00
58072;BME280;60383;46.626;18.866;2022-12-10T14:53:40;98860.81;;;4.00;100.00
58072;BME280;60383;46.626;18.866;2022-12-10T14:56:07;98856.38;;;3.99;100.00
58072;BME280;60383;46.626;18.866;2022-12-10T15:01:04;98864.09;;;3.76;100.00
58072;BME280;60383;46.626;18.866;2022-12-10T15:03:34;98864.75;;;3.88;100.00
58072;BME280;60383;46.626;18.866;2022-12-10T15:06:02;98872.22;;;3.76;100.00
58072;BME280;60383;46.626;18.866;2022-12-10T15:08:32;98869.19;;;3.79;100.00
58072;BME280;60383;46.626;18.866;2022-12-10T15:11:01;98858.88;;;3.64;100.00
58072;BME280;60383;46.626;18.866;2022-12-10T15:13:40;98870.16;;;3.88;100.00
58072;BME280;60383;46.626;18.866;2022-12-10T15:16:17;98865.50;;;3.98;100.00
58072;BME280;60383;46.626;18.866;2022-12-10T15:18:43;98863.88;;;3.87;100.00